Time;durP1;ratioP1;P1;durP2;ratioP2;P2;SDS_P1;SDS_P2;PMS_P1;PMS_P2;Temp;Humidity;BMP_temperature;BMP_pressure;BME280_temperature;BME280_humidity;BME280_pressure;Samples;Min_cycle;Max_cycle;Signal;HPM_P1;HPM_P2
2022/06/29 00:00:26;;;;;;;;;;;;;;;;;;4970678;28;20391;-82
2022/06/29 00:02:51;;;;;;;;;;;;;;;;;;4972616;28;19914;-82
2022/06/29 00:05:17;;;;;;;;;;;;;;;;;;4975732;28;19918;-82
2022/06/29 00:07:42;;;;;;;;;;;;;;;;;;4970315;28;19929;-82
2022/06/29 00:10:07;;;;;;;;;;;;;;;;;;4970472;28;19968;-82
2022/06/29 00:12:32;;;;;;;;;;;;;;;;;;4967140;28;19968;-82
2022/06/29 00:14:57;;;;;;;;;;;;;;;;;;4965798;28;20534;-82
2022/06/29 00:17:22;;;;;;;;;;;;;;;;;;4972237;28;19914;-82
2022/06/29 00:19:48;;;;;;;;;;;;;;;;;;4970399;28;19968;-82
2022/06/29 00:22:14;;;;;;;;;;;;;;;;;;4975920;28;19953;-82
2022/06/29 00:24:39;;;;;;;;;;;;;;;;;;4977130;28;19934;-82
2022/06/29 00:27:04;;;;;;;;;;;;;;;;;;4986453;28;20236;-82
2022/06/29 00:29:29;;;;;;;;;;;;;;;;;;4969454;28;19921;-82
2022/06/29 00:31:54;;;;;;;;;;;;;;;;;;4973857;28;19977;-82
2022/06/29 00:34:19;;;;;;;;;;;;;;;;;;4972018;28;19914;-82
2022/06/29 00:36:45;;;;;;;;;;;;;;;;;;4973407;28;19918;-82
2022/06/29 00:39:10;;;;;;;;;;;;;;;;;;4969997;28;19936;-82
2022/06/29 00:41:35;;;;;;;;;;;;;;;;;;4976241;28;19996;-82
2022/06/29 00:44:00;;;;;;;;;;;;;;;;;;4973187;28;19929;-82
2022/06/29 00:46:25;;;;;;;;;;;;;;;;;;4984980;28;19918;-82
2022/06/29 00:48:50;;;;;;;;;;;;;;;;;;4995101;22;19950;-84
2022/06/29 00:51:16;;;;;;;;;;;;;;;;;;5009961;28;19928;-83
2022/06/29 00:53:41;;;;;;;;;;;;;;;;;;5006916;28;19914;-83
2022/06/29 00:56:07;;;;;;;;;;;;;;;;;;5011467;28;19914;-83
2022/06/29 00:58:32;;;;;;;;;;;;;;;;;;5011377;28;19937;-83
2022/06/29 01:00:58;;;;;;;;;;;;;;;;;;5009406;28;20282;-84
2022/06/29 01:03:23;;;;;;;;;;;;;;;;;;5002109;28;19910;-83
2022/06/29 01:05:48;;;;;;;;;;;;;;;;;;5008830;28;19910;-83
2022/06/29 01:08:13;;;;;;;;;;;;;;;;;;4991226;28;20287;-84
2022/06/29 01:10:38;;;;;;;;;;;;;;;;;;4997153;28;19973;-84
2022/06/29 01:13:04;;;;;;;;;;;;;;;;;;5014512;28;19916;-83
2022/06/29 01:15:29;;;;;;;;;;;;;;;;;;4994748;28;19914;-83
2022/06/29 01:17:54;;;;;;;;;;;;;;;;;;4978599;28;19965;-83
2022/06/29 01:20:19;;;;;;;;;;;;;;;;;;4997083;28;20000;-83
2022/06/29 01:22:46;;;;;;;;;;;;;;;;;;4997261;28;19909;-84
2022/06/29 01:25:11;;;;;;;;;;;;;;;;;;4994929;28;19910;-84
2022/06/29 01:27:36;;;;;;;;;;;;;;;;;;4994795;28;19916;-84
2022/06/29 01:30:01;;;;;;;;;;;;;;;;;;4994635;28;20445;-83
2022/06/29 01:32:26;;;;;;;;;;;;;;;;;;5000531;28;19910;-84
2022/06/29 01:34:52;;;;;;;;;;;;;;;;;;4996374;28;19910;-83
2022/06/29 01:37:17;;;;;;;;;;;;;;;;;;4994488;28;19910;-83
2022/06/29 01:39:42;;;;;;;;;;;;;;;;;;4994197;28;20303;-83
2022/06/29 01:42:07;;;;;;;;;;;;;;;;;;4994265;28;19961;-83
2022/06/29 01:44:33;;;;;;;;;;;;;;;;;;4994671;28;20032;-83
2022/06/29 01:46:58;;;;;;;;;;;;;;;;;;4994434;28;20294;-83
2022/06/29 01:49:23;;;;;;;;;;;;;;;;;;4994309;28;19921;-84
2022/06/29 01:51:49;;;;;;;;;;;;;;;;;;4989219;28;20386;-83
2022/06/29 01:54:14;;;;;;;;;;;;;;;;;;4975141;28;20407;-83
2022/06/29 01:56:39;;;;;;;;;;;;;;;;;;4987643;28;20371;-83
2022/06/29 01:59:04;;;;;;;;;;;;;;;;;;4991670;28;19942;-83
2022/06/29 02:01:29;;;;;;;;;;;;;;;;;;5005596;28;19909;-83
2022/06/29 02:03:54;;;;;;;;;;;;;;;;;;5003089;28;20352;-83
2022/06/29 02:06:20;;;;;;;;;;;;;;;;;;4993385;28;19996;-83
2022/06/29 02:08:46;;;;;;;;;;;;;;;;;;4992639;28;20378;-83
2022/06/29 02:11:11;;;;;;;;;;;;;;;;;;4994314;28;19909;-83
2022/06/29 02:13:36;;;;;;;;;;;;;;;;;;4994185;28;19909;-83
2022/06/29 02:16:01;;;;;;;;;;;;;;;;;;4993697;28;20105;-84
2022/06/29 02:18:27;;;;;;;;;;;;;;;;;;4993752;28;20000;-84
2022/06/29 02:20:52;;;;;;;;;;;;;;;;;;4981672;28;19910;-84
2022/06/29 02:23:17;;;;;;;;;;;;;;;;;;4989132;28;19910;-83
2022/06/29 02:25:42;;;;;;;;;;;;;;;;;;4994118;28;19962;-84
2022/06/29 02:28:07;;;;;;;;;;;;;;;;;;4993948;28;19999;-83
2022/06/29 02:36:00;;;;;;;;;;;;;;;;;;4993416;28;19930;-83
2022/06/29 02:38:25;;;;;;;;;;;;;;;;;;5000368;28;19913;-84
2022/06/29 02:40:50;;;;;;;;;;;;;;;;;;4993131;28;20049;-83
2022/06/29 02:43:16;;;;;;;;;;;;;;;;;;5006140;28;19913;-83
2022/06/29 02:45:41;;;;;;;;;;;;;;;;;;5013090;28;20000;-83
2022/06/29 02:48:06;;;;;;;;;;;;;;;;;;4995682;28;20383;-83
2022/06/29 02:50:31;;;;;;;;;;;;;;;;;;4992786;28;19957;-84
2022/06/29 02:52:56;;;;;;;;;;;;;;;;;;4987768;28;19910;-83
2022/06/29 02:55:22;;;;;;;;;;;;;;;;;;4992925;28;19914;-83
2022/06/29 02:57:47;;;;;;;;;;;;;;;;;;4992842;28;19993;-83
2022/06/29 03:00:12;;;;;;;;;;;;;;;;;;4992768;28;19913;-83
2022/06/29 03:02:37;;;;;;;;;;;;;;;;;;4993407;28;19972;-84
2022/06/29 03:05:02;;;;;;;;;;;;;;;;;;4992985;28;19948;-83
2022/06/29 03:07:27;;;;;;;;;;;;;;;;;;4992893;28;19910;-83
2022/06/29 03:09:53;;;;;;;;;;;;;;;;;;4992900;28;19914;-83
2022/06/29 03:12:18;;;;;;;;;;;;;;;;;;4993417;28;20311;-83
2022/06/29 03:14:43;;;;;;;;;;;;;;;;;;4993118;28;20355;-82
2022/06/29 03:17:08;;;;;;;;;;;;;;;;;;4993233;28;19910;-84
2022/06/29 03:19:33;;;;;;;;;;;;;;;;;;5006448;28;20376;-84
2022/06/29 03:21:59;;;;;;;;;;;;;;;;;;5005452;28;19921;-84
2022/06/29 03:24:24;;;;;;;;;;;;;;;;;;4993014;28;20330;-84
2022/06/29 03:26:49;;;;;;;;;;;;;;;;;;4991776;28;19910;-83
2022/06/29 03:29:14;;;;;;;;;;;;;;;;;;4992371;28;20295;-83
2022/06/29 03:31:39;;;;;;;;;;;;;;;;;;4992523;28;19941;-84
2022/06/29 03:34:05;;;;;;;;;;;;;;;;;;4992120;28;20000;-83
2022/06/29 03:36:30;;;;;;;;;;;;;;;;;;4992450;28;20371;-84
2022/06/29 03:38:55;;;;;;;;;;;;;;;;;;4977956;28;19953;-84
2022/06/29 03:41:20;;;;;;;;;;;;;;;;;;4973273;28;19910;-84
2022/06/29 03:43:45;;;;;;;;;;;;;;;;;;4997551;28;19917;-84
2022/06/29 03:46:10;;;;;;;;;;;;;;;;;;4999724;28;20441;-83
2022/06/29 03:48:36;;;;;;;;;;;;;;;;;;4992387;28;19949;-84
2022/06/29 03:51:01;;;;;;;;;;;;;;;;;;4991700;28;19925;-83
2022/06/29 03:53:26;;;;;;;;;;;;;;;;;;4978743;28;19910;-83
2022/06/29 03:55:51;;;;;;;;;;;;;;;;;;4991983;28;19963;-84
2022/06/29 03:58:16;;;;;;;;;;;;;;;;;;4992318;28;19976;-83
2022/06/29 04:00:42;;;;;;;;;;;;;;;;;;4992009;28;20282;-83
2022/06/29 04:03:07;;;;;;;;;;;;;;;;;;4992022;28;19913;-84
2022/06/29 04:05:32;;;;;;;;;;;;;;;;;;4992138;28;19910;-84
2022/06/29 04:07:57;;;;;;;;;;;;;;;;;;4992067;28;19945;-84
2022/06/29 04:10:22;;;;;;;;;;;;;;;;;;4989539;28;19917;-83
2022/06/29 04:12:47;;;;;;;;;;;;;;;;;;4975547;28;19914;-84
2022/06/29 04:15:13;;;;;;;;;;;;;;;;;;4982834;28;20331;-83
2022/06/29 04:17:38;;;;;;;;;;;;;;;;;;4992289;28;19917;-83
2022/06/29 04:20:03;;;;;;;;;;;;;;;;;;4992619;28;19921;-83
2022/06/29 04:22:28;;;;;;;;;;;;;;;;;;4991634;28;19921;-84
2022/06/29 04:24:53;;;;;;;;;;;;;;;;;;4978578;28;19917;-84
2022/06/29 04:27:18;;;;;;;;;;;;;;;;;;4985719;28;19914;-84
2022/06/29 04:29:44;;;;;;;;;;;;;;;;;;4984443;28;19918;-84
2022/06/29 04:32:09;;;;;;;;;;;;;;;;;;4975696;28;20004;-83
2022/06/29 04:34:34;;;;;;;;;;;;;;;;;;4984507;28;19948;-83
2022/06/29 04:36:59;;;;;;;;;;;;;;;;;;4987454;28;19991;-83
2022/06/29 04:39:24;;;;;;;;;;;;;;;;;;4989197;28;19918;-84
2022/06/29 04:41:52;;;;;;;;;;;;;;;;;;4991716;28;19913;-83
2022/06/29 04:44:17;;;;;;;;;;;;;;;;;;4990783;28;19933;-83
2022/06/29 04:46:43;;;;;;;;;;;;;;;;;;4987438;28;19949;-83
2022/06/29 04:49:09;;;;;;;;;;;;;;;;;;4995264;28;19922;-84
2022/06/29 04:51:35;;;;;;;;;;;;;;;;;;4990389;28;19913;-83
2022/06/29 04:54:00;;;;;;;;;;;;;;;;;;4994421;28;19913;-84
2022/06/29 04:56:25;;;;;;;;;;;;;;;;;;4994289;28;19959;-84
2022/06/29 04:58:53;;;;;;;;;;;;;;;;;;4979149;28;19914;-85
2022/06/29 05:01:18;;;;;;;;;;;;;;;;;;4990937;28;19915;-83
2022/06/29 05:03:43;;;;;;;;;;;;;;;;;;4992332;28;19910;-84
2022/06/29 05:06:08;;;;;;;;;;;;;;;;;;4988853;28;19913;-83
2022/06/29 05:08:34;;;;;;;;;;;;;;;;;;4996720;28;20012;-83
2022/06/29 05:10:59;;;;;;;;;;;;;;;;;;4996145;28;19945;-83
2022/06/29 05:13:24;;;;;;;;;;;;;;;;;;4995447;28;19985;-84
2022/06/29 05:15:49;;;;;;;;;;;;;;;;;;4995326;28;20398;-83
2022/06/29 05:18:14;;;;;;;;;;;;;;;;;;4995495;28;19950;-83
2022/06/29 05:20:39;;;;;;;;;;;;;;;;;;4994664;28;20032;-83
2022/06/29 05:23:05;;;;;;;;;;;;;;;;;;4994933;28;19910;-84
2022/06/29 05:25:30;;;;;;;;;;;;;;;;;;4995214;28;20356;-83
2022/06/29 05:27:55;;;;;;;;;;;;;;;;;;4993791;28;20494;-83
2022/06/29 05:30:20;;;;;;;;;;;;;;;;;;4994893;28;19914;-83
2022/06/29 05:32:45;;;;;;;;;;;;;;;;;;4994887;28;20279;-83
2022/06/29 05:35:10;;;;;;;;;;;;;;;;;;4998510;28;19917;-83
2022/06/29 05:37:36;;;;;;;;;;;;;;;;;;4996181;28;20295;-83
2022/06/29 05:40:01;;;;;;;;;;;;;;;;;;4989474;28;19914;-83
2022/06/29 05:42:26;;;;;;;;;;;;;;;;;;4994767;28;20004;-83
2022/06/29 05:44:51;;;;;;;;;;;;;;;;;;4991449;28;20490;-83
2022/06/29 05:47:16;;;;;;;;;;;;;;;;;;4989413;28;19917;-83
2022/06/29 05:49:41;;;;;;;;;;;;;;;;;;4995194;28;20500;-83
2022/06/29 05:52:07;;;;;;;;;;;;;;;;;;4995437;28;20386;-83
2022/06/29 05:54:32;;;;;;;;;;;;;;;;;;4995404;28;19914;-83
2022/06/29 05:56:57;;;;;;;;;;;;;;;;;;5003006;28;19924;-83
2022/06/29 05:59:22;;;;;;;;;;;;;;;;;;4995579;28;19916;-82
2022/06/29 06:01:47;;;;;;;;;;;;;;;;;;4991294;28;19922;-82
2022/06/29 06:04:13;;;;;;;;;;;;;;;;;;4995542;28;19984;-83
2022/06/29 06:06:38;;;;;;;;;;;;;;;;;;4998231;28;19945;-83
2022/06/29 06:09:03;;;;;;;;;;;;;;;;;;4986680;28;19961;-82
2022/06/29 06:11:28;;;;;;;;;;;;;;;;;;4994186;28;19914;-83
2022/06/29 06:13:53;;;;;;;;;;;;;;;;;;4980723;28;19910;-83
2022/06/29 06:16:19;;;;;;;;;;;;;;;;;;4993925;28;20554;-83
2022/06/29 06:18:44;;;;;;;;;;;;;;;;;;4994712;28;19914;-82
2022/06/29 06:21:09;;;;;;;;;;;;;;;;;;4994455;28;20375;-83
2022/06/29 06:23:34;;;;;;;;;;;;;;;;;;4994035;28;19920;-84
2022/06/29 06:25:59;;;;;;;;;;;;;;;;;;4991335;28;19914;-84
2022/06/29 06:28:25;;;;;;;;;;;;;;;;;;4990060;28;20024;-83
2022/06/29 06:30:50;;;;;;;;;;;;;;;;;;4993886;28;19921;-83
2022/06/29 06:33:15;;;;;;;;;;;;;;;;;;4991633;28;19964;-84
2022/06/29 06:35:40;;;;;;;;;;;;;;;;;;4993082;28;20016;-83
2022/06/29 06:38:05;;;;;;;;;;;;;;;;;;4989119;28;19929;-83
2022/06/29 06:43:15;;;;;;;;;;;;;;;;;;4991653;28;19922;-83
2022/06/29 06:45:40;;;;;;;;;;;;;;;;;;4983017;28;20331;-83
2022/06/29 06:48:05;;;;;;;;;;;;;;;;;;4992140;28;19960;-83
2022/06/29 06:50:30;;;;;;;;;;;;;;;;;;5022088;22;19929;-82
2022/06/29 06:52:55;;;;;;;;;;;;;;;;;;5009068;28;19913;-82
2022/06/29 06:55:21;;;;;;;;;;;;;;;;;;5011198;28;20391;-81
2022/06/29 06:57:46;;;;;;;;;;;;;;;;;;5005939;28;19983;-82
2022/06/29 07:00:11;;;;;;;;;;;;;;;;;;5006941;28;19913;-82
2022/06/29 07:02:36;;;;;;;;;;;;;;;;;;5003721;28;19921;-82
2022/06/29 07:05:01;;;;;;;;;;;;;;;;;;4995718;28;19914;-82
2022/06/29 07:07:27;;;;;;;;;;;;;;;;;;5006703;28;19920;-82
2022/06/29 07:09:52;;;;;;;;;;;;;;;;;;5003914;28;19925;-83
2022/06/29 07:12:17;;;;;;;;;;;;;;;;;;5002672;28;19920;-83
2022/06/29 07:14:42;;;;;;;;;;;;;;;;;;5005741;28;19929;-83
2022/06/29 07:17:07;;;;;;;;;;;;;;;;;;5002229;28;19920;-83
2022/06/29 07:19:33;;;;;;;;;;;;;;;;;;5001429;28;19922;-82
2022/06/29 07:21:58;;;;;;;;;;;;;;;;;;5005688;28;20007;-83
2022/06/29 07:24:23;;;;;;;;;;;;;;;;;;5006772;28;19916;-83
2022/06/29 07:26:48;;;;;;;;;;;;;;;;;;5005589;28;20410;-82
2022/06/29 07:29:13;;;;;;;;;;;;;;;;;;5001691;28;19917;-83
2022/06/29 07:31:38;;;;;;;;;;;;;;;;;;5004494;28;20016;-84
2022/06/29 07:34:04;;;;;;;;;;;;;;;;;;5005288;28;20826;-83
2022/06/29 07:36:29;;;;;;;;;;;;;;;;;;5005461;28;19976;-83
2022/06/29 07:38:55;;;;;;;;;;;;;;;;;;5005159;28;19914;-83
2022/06/29 07:41:20;;;;;;;;;;;;;;;;;;5001938;28;19914;-83
2022/06/29 07:43:46;;;;;;;;;;;;;;;;;;5005780;28;19916;-84
2022/06/29 07:46:11;;;;;;;;;;;;;;;;;;5003514;28;20359;-83
2022/06/29 07:48:36;;;;;;;;;;;;;;;;;;5006792;28;20264;-83
2022/06/29 07:51:01;;;;;;;;;;;;;;;;;;5004311;28;19918;-83
2022/06/29 07:53:26;;;;;;;;;;;;;;;;;;5002561;28;19987;-84
2022/06/29 07:55:52;;;;;;;;;;;;;;;;;;5002049;28;19924;-83
2022/06/29 07:58:17;;;;;;;;;;;;;;;;;;5004120;28;20388;-83
2022/06/29 08:00:42;;;;;;;;;;;;;;;;;;5007303;28;19913;-83
2022/06/29 08:03:07;;;;;;;;;;;;;;;;;;5001800;28;19961;-83
2022/06/29 08:05:32;;;;;;;;;;;;;;;;;;5001386;28;19929;-84
2022/06/29 08:07:57;;;;;;;;;;;;;;;;;;5002833;28;20402;-83
2022/06/29 08:10:23;;;;;;;;;;;;;;;;;;5004391;28;19914;-84
2022/06/29 08:12:48;;;;;;;;;;;;;;;;;;5002146;28;19937;-83
2022/06/29 08:15:15;;;;;;;;;;;;;;;;;;5000058;28;19910;-83
2022/06/29 08:17:40;;;;;;;;;;;;;;;;;;4999834;28;19913;-83
2022/06/29 08:20:05;;;;;;;;;;;;;;;;;;5000343;28;20354;-84
2022/06/29 08:22:30;;;;;;;;;;;;;;;;;;4998936;28;19922;-83
2022/06/29 08:24:55;;;;;;;;;;;;;;;;;;5003804;28;19909;-83
2022/06/29 08:27:21;;;;;;;;;;;;;;;;;;5007053;28;20004;-84
2022/06/29 08:29:47;;;;;;;;;;;;;;;;;;5009993;28;19913;-83
2022/06/29 08:32:12;;;;;;;;;;;;;;;;;;4998667;28;19910;-84
2022/06/29 08:34:39;;;;;;;;;;;;;;;;;;5006643;28;19917;-83
2022/06/29 08:37:04;;;;;;;;;;;;;;;;;;5008417;28;19918;-84
2022/06/29 08:39:29;;;;;;;;;;;;;;;;;;5008913;28;19964;-83
2022/06/29 08:41:54;;;;;;;;;;;;;;;;;;5013678;28;19953;-84
2022/06/29 08:44:20;;;;;;;;;;;;;;;;;;5006654;28;19936;-84
2022/06/29 08:46:45;;;;;;;;;;;;;;;;;;5002662;28;20374;-84
2022/06/29 08:49:10;;;;;;;;;;;;;;;;;;5002321;28;19914;-84
2022/06/29 08:51:35;;;;;;;;;;;;;;;;;;5009002;28;20001;-83
2022/06/29 08:54:00;;;;;;;;;;;;;;;;;;5008385;28;19916;-84
2022/06/29 08:56:25;;;;;;;;;;;;;;;;;;5011477;28;20586;-84
2022/06/29 08:58:51;;;;;;;;;;;;;;;;;;5007108;28;19917;-84
2022/06/29 09:01:17;;;;;;;;;;;;;;;;;;5003872;28;19914;-84
2022/06/29 09:03:42;;;;;;;;;;;;;;;;;;5002279;28;20371;-84
2022/06/29 09:06:08;;;;;;;;;;;;;;;;;;5007116;28;20012;-84
2022/06/29 09:08:33;;;;;;;;;;;;;;;;;;5000600;28;19952;-84
2022/06/29 09:10:58;;;;;;;;;;;;;;;;;;5005760;28;19996;-84
2022/06/29 09:13:23;;;;;;;;;;;;;;;;;;5002815;28;19914;-83
2022/06/29 09:15:49;;;;;;;;;;;;;;;;;;5005679;28;20028;-84
2022/06/29 09:18:14;;;;;;;;;;;;;;;;;;5002955;28;20357;-84
2022/06/29 09:20:39;;;;;;;;;;;;;;;;;;5007192;28;19921;-84
2022/06/29 09:23:04;;;;;;;;;;;;;;;;;;5006534;28;19956;-84
2022/06/29 09:25:29;;;;;;;;;;;;;;;;;;5002195;28;19998;-84
2022/06/29 09:27:55;;;;;;;;;;;;;;;;;;5008654;28;20529;-84
2022/06/29 09:30:20;;;;;;;;;;;;;;;;;;5007179;28;19913;-84
2022/06/29 09:32:45;;;;;;;;;;;;;;;;;;4994609;28;19918;-84
2022/06/29 09:35:12;;;;;;;;;;;;;;;;;;5006993;28;19964;-84
2022/06/29 09:37:38;;;;;;;;;;;;;;;;;;5005817;28;19957;-84
2022/06/29 09:40:03;;;;;;;;;;;;;;;;;;5008526;28;19999;-84
2022/06/29 09:42:28;;;;;;;;;;;;;;;;;;5007262;28;20000;-84
2022/06/29 09:44:54;;;;;;;;;;;;;;;;;;5010318;28;19913;-84
2022/06/29 09:47:19;;;;;;;;;;;;;;;;;;5008996;28;20401;-84
2022/06/29 09:49:44;;;;;;;;;;;;;;;;;;5006694;28;19949;-85
2022/06/29 09:52:09;;;;;;;;;;;;;;;;;;4998836;28;19975;-85
2022/06/29 09:54:34;;;;;;;;;;;;;;;;;;5004670;28;20000;-84
2022/06/29 09:57:00;;;;;;;;;;;;;;;;;;5000254;28;20502;-85
2022/06/29 10:02:34;;;;;;;;;;;;;;;;;;5006167;28;19959;-84
2022/06/29 10:04:56;;;;;;;;;;;;;;;;;;5010488;28;20536;-84
2022/06/29 10:07:21;;;;;;;;;;;;;;;;;;5009709;28;19910;-84
2022/06/29 10:09:46;;;;;;;;;;;;;;;;;;5002341;28;19979;-85
2022/06/29 10:14:55;;;;;;;;;;;;;;;;;;5004903;28;19969;-85
2022/06/29 10:17:21;;;;;;;;;;;;;;;;;;5008249;28;20362;-85
2022/06/29 10:19:46;;;;;;;;;;;;;;;;;;4998809;28;19918;-84
2022/06/29 10:22:11;;;;;;;;;;;;;;;;;;5007372;28;20020;-85
2022/06/29 10:24:37;;;;;;;;;;;;;;;;;;5004542;28;19920;-85
2022/06/29 10:27:02;;;;;;;;;;;;;;;;;;5010044;28;19933;-84
2022/06/29 10:29:28;;;;;;;;;;;;;;;;;;5008334;28;19921;-85
2022/06/29 10:31:59;;;;;;;;;;;;;;;;;;5001355;28;19910;-85
2022/06/29 10:34:25;;;;;;;;;;;;;;;;;;5012225;28;19917;-85
2022/06/29 10:36:50;;;;;;;;;;;;;;;;;;5007221;28;19913;-85
2022/06/29 10:39:15;;;;;;;;;;;;;;;;;;5002886;28;19971;-85
2022/06/29 10:44:24;;;;;;;;;;;;;;;;;;5005638;28;20069;-84
2022/06/29 10:46:49;;;;;;;;;;;;;;;;;;5006102;28;20000;-85
2022/06/29 10:49:15;;;;;;;;;;;;;;;;;;5005459;28;19971;-85
2022/06/29 10:51:40;;;;;;;;;;;;;;;;;;5013266;28;19921;-85
2022/06/29 10:54:05;;;;;;;;;;;;;;;;;;5005152;28;20004;-84
2022/06/29 10:56:30;;;;;;;;;;;;;;;;;;5010361;28;19917;-84
2022/06/29 10:58:55;;;;;;;;;;;;;;;;;;5013863;28;19917;-84
2022/06/29 11:01:21;;;;;;;;;;;;;;;;;;5003720;28;19964;-85
2022/06/29 11:03:46;;;;;;;;;;;;;;;;;;5000954;28;20433;-84
2022/06/29 11:17:39;;;;;;;;;;;;;;;;;;5004865;28;19928;-85
2022/06/29 11:19:52;;;;;;;;;;;;;;;;;;5006008;28;19917;-85
2022/06/29 11:22:18;;;;;;;;;;;;;;;;;;5004749;28;20519;-85
2022/06/29 11:24:43;;;;;;;;;;;;;;;;;;5006232;28;19910;-85
2022/06/29 11:27:08;;;;;;;;;;;;;;;;;;5016847;28;19917;-85
2022/06/29 11:29:34;;;;;;;;;;;;;;;;;;5009221;28;20461;-85
2022/06/29 11:31:59;;;;;;;;;;;;;;;;;;5006243;28;19952;-85
2022/06/29 11:34:25;;;;;;;;;;;;;;;;;;5000112;28;19999;-85
2022/06/29 11:36:50;;;;;;;;;;;;;;;;;;5005229;28;20294;-85
2022/06/29 11:39:15;;;;;;;;;;;;;;;;;;5003774;28;19909;-85
2022/06/29 11:44:27;;;;;;;;;;;;;;;;;;5010087;28;19917;-85
2022/06/29 11:46:52;;;;;;;;;;;;;;;;;;5008736;28;20461;-84
2022/06/29 11:49:38;;;;;;;;;;;;;;;;;;5005602;28;19926;-84
2022/06/29 11:52:03;;;;;;;;;;;;;;;;;;5010272;28;19921;-84
2022/06/29 11:54:28;;;;;;;;;;;;;;;;;;5007606;28;20413;-85
2022/06/29 11:56:54;;;;;;;;;;;;;;;;;;5010630;28;20387;-85
2022/06/29 11:59:19;;;;;;;;;;;;;;;;;;5004181;28;19917;-84
2022/06/29 12:01:44;;;;;;;;;;;;;;;;;;5012998;28;19914;-85
2022/06/29 12:04:09;;;;;;;;;;;;;;;;;;5009072;28;20272;-84
2022/06/29 12:06:35;;;;;;;;;;;;;;;;;;5002369;28;19921;-85
2022/06/29 12:09:00;;;;;;;;;;;;;;;;;;5004659;28;19918;-85
2022/06/29 12:11:25;;;;;;;;;;;;;;;;;;5011266;28;19976;-84
2022/06/29 12:13:51;;;;;;;;;;;;;;;;;;5000868;28;20398;-85
2022/06/29 12:16:16;;;;;;;;;;;;;;;;;;5006405;28;20143;-85
2022/06/29 12:18:41;;;;;;;;;;;;;;;;;;5006898;28;19924;-85
2022/06/29 12:21:07;;;;;;;;;;;;;;;;;;5009997;28;20422;-85
2022/06/29 12:23:32;;;;;;;;;;;;;;;;;;5003065;28;20017;-85
2022/06/29 12:25:57;;;;;;;;;;;;;;;;;;5006720;28;20013;-84
2022/06/29 12:28:22;;;;;;;;;;;;;;;;;;5003259;28;19921;-85
2022/06/29 12:30:48;;;;;;;;;;;;;;;;;;5007168;28;20629;-85
2022/06/29 12:33:13;;;;;;;;;;;;;;;;;;5005519;28;20375;-85
2022/06/29 12:35:38;;;;;;;;;;;;;;;;;;5008479;28;19967;-85
2022/06/29 12:38:03;;;;;;;;;;;;;;;;;;5006341;28;19948;-86
2022/06/29 12:40:29;;;;;;;;;;;;;;;;;;5010460;28;20409;-85
2022/06/29 12:42:54;;;;;;;;;;;;;;;;;;5010471;28;19914;-86
2022/06/29 12:45:19;;;;;;;;;;;;;;;;;;5001522;28;19925;-85
2022/06/29 12:47:44;;;;;;;;;;;;;;;;;;5001320;28;19924;-86
2022/06/29 12:50:09;;;;;;;;;;;;;;;;;;5015984;22;19975;-83
2022/06/29 12:52:34;;;;;;;;;;;;;;;;;;5004002;28;19980;-83
2022/06/29 12:55:00;;;;;;;;;;;;;;;;;;5022036;28;20008;-83
2022/06/29 12:57:25;;;;;;;;;;;;;;;;;;5002382;28;19916;-82
2022/06/29 12:59:51;;;;;;;;;;;;;;;;;;4997831;28;19914;-82
2022/06/29 13:02:21;;;;;;;;;;;;;;;;;;4997123;28;19917;-83
2022/06/29 13:04:46;;;;;;;;;;;;;;;;;;5001912;28;19922;-83
2022/06/29 13:07:11;;;;;;;;;;;;;;;;;;5002101;28;19917;-83
2022/06/29 13:09:36;;;;;;;;;;;;;;;;;;5006328;28;19921;-83
2022/06/29 13:12:01;;;;;;;;;;;;;;;;;;5005406;28;19939;-83
2022/06/29 13:14:26;;;;;;;;;;;;;;;;;;5003786;28;19914;-83
2022/06/29 13:16:52;;;;;;;;;;;;;;;;;;5007771;28;20306;-82
2022/06/29 13:19:17;;;;;;;;;;;;;;;;;;5008816;28;20139;-83
2022/06/29 13:21:42;;;;;;;;;;;;;;;;;;5004754;28;20012;-83
2022/06/29 13:24:07;;;;;;;;;;;;;;;;;;5007156;28;20492;-83
2022/06/29 13:26:32;;;;;;;;;;;;;;;;;;5013241;28;19910;-82
2022/06/29 13:28:57;;;;;;;;;;;;;;;;;;5012038;28;19922;-82
2022/06/29 13:31:23;;;;;;;;;;;;;;;;;;5010178;28;19940;-83
2022/06/29 13:33:48;;;;;;;;;;;;;;;;;;5008522;28;19917;-83
2022/06/29 13:36:13;;;;;;;;;;;;;;;;;;5004518;28;19913;-82
2022/06/29 13:38:38;;;;;;;;;;;;;;;;;;5008142;28;19925;-83
2022/06/29 13:41:04;;;;;;;;;;;;;;;;;;5008476;28;20265;-82
2022/06/29 13:43:29;;;;;;;;;;;;;;;;;;5005657;28;19913;-83
2022/06/29 13:45:54;;;;;;;;;;;;;;;;;;5005050;28;19924;-83
2022/06/29 13:48:19;;;;;;;;;;;;;;;;;;5005056;28;20490;-83
2022/06/29 13:50:45;;;;;;;;;;;;;;;;;;5001210;28;19921;-83
2022/06/29 13:53:10;;;;;;;;;;;;;;;;;;5005602;28;20012;-83
2022/06/29 13:55:35;;;;;;;;;;;;;;;;;;5005489;28;20009;-83
2022/06/29 13:58:00;;;;;;;;;;;;;;;;;;5007181;28;19921;-83
2022/06/29 14:00:25;;;;;;;;;;;;;;;;;;5005145;28;19914;-83
2022/06/29 14:02:50;;;;;;;;;;;;;;;;;;5006443;28;19917;-83
2022/06/29 14:05:16;;;;;;;;;;;;;;;;;;5012624;28;19913;-83
2022/06/29 14:07:41;;;;;;;;;;;;;;;;;;5005098;28;20004;-83
2022/06/29 14:10:06;;;;;;;;;;;;;;;;;;5008418;28;19924;-83
2022/06/29 14:12:31;;;;;;;;;;;;;;;;;;5004715;28;19917;-83
2022/06/29 14:14:56;;;;;;;;;;;;;;;;;;5009066;28;19941;-83
2022/06/29 14:17:22;;;;;;;;;;;;;;;;;;5007630;28;19918;-83
2022/06/29 14:19:47;;;;;;;;;;;;;;;;;;5009454;28;20377;-83
2022/06/29 14:22:12;;;;;;;;;;;;;;;;;;5007062;28;19925;-83
2022/06/29 14:24:37;;;;;;;;;;;;;;;;;;4997247;28;20342;-83
2022/06/29 14:27:03;;;;;;;;;;;;;;;;;;5000932;28;19917;-83
2022/06/29 14:29:28;;;;;;;;;;;;;;;;;;5002254;28;20453;-83
2022/06/29 14:31:53;;;;;;;;;;;;;;;;;;5003046;28;19961;-83
2022/06/29 14:34:18;;;;;;;;;;;;;;;;;;5004886;28;19940;-83
2022/06/29 14:36:43;;;;;;;;;;;;;;;;;;5004702;28;20011;-83
2022/06/29 14:39:09;;;;;;;;;;;;;;;;;;5003580;28;19918;-83
2022/06/29 14:41:34;;;;;;;;;;;;;;;;;;5004238;28;19959;-83
2022/06/29 14:44:00;;;;;;;;;;;;;;;;;;5004690;28;19964;-83
2022/06/29 14:46:25;;;;;;;;;;;;;;;;;;4991322;28;19919;-83
2022/06/29 14:48:50;;;;;;;;;;;;;;;;;;4991092;28;19921;-83
2022/06/29 14:51:17;;;;;;;;;;;;;;;;;;5004575;28;19933;-83
2022/06/29 14:53:42;;;;;;;;;;;;;;;;;;4996902;28;19921;-83
2022/06/29 14:56:07;;;;;;;;;;;;;;;;;;4998849;28;19921;-83
2022/06/29 14:58:32;;;;;;;;;;;;;;;;;;4999890;28;20296;-83
2022/06/29 15:00:57;;;;;;;;;;;;;;;;;;5004451;28;20005;-83
2022/06/29 15:03:23;;;;;;;;;;;;;;;;;;5003369;28;19917;-83
2022/06/29 15:05:48;;;;;;;;;;;;;;;;;;4995886;28;19929;-83
2022/06/29 15:08:13;;;;;;;;;;;;;;;;;;4999154;28;19913;-83
2022/06/29 15:10:38;;;;;;;;;;;;;;;;;;5002350;28;19917;-83
2022/06/29 15:13:03;;;;;;;;;;;;;;;;;;5000540;28;19917;-84
2022/06/29 15:15:28;;;;;;;;;;;;;;;;;;5005545;28;19921;-83
2022/06/29 15:17:54;;;;;;;;;;;;;;;;;;5004891;28;20336;-83
2022/06/29 15:20:19;;;;;;;;;;;;;;;;;;4997419;28;19921;-83
2022/06/29 15:22:44;;;;;;;;;;;;;;;;;;4996312;28;19921;-84
2022/06/29 15:25:09;;;;;;;;;;;;;;;;;;4996895;28;19917;-84
2022/06/29 15:27:34;;;;;;;;;;;;;;;;;;5002815;28;19921;-83
2022/06/29 15:29:59;;;;;;;;;;;;;;;;;;5003241;28;19921;-83
2022/06/29 15:32:25;;;;;;;;;;;;;;;;;;5007242;28;19924;-83
2022/06/29 15:40:20;;;;;;;;;;;;;;;;;;5009861;28;19956;-83
2022/06/29 15:42:45;;;;;;;;;;;;;;;;;;5006972;28;19918;-83
2022/06/29 15:45:10;;;;;;;;;;;;;;;;;;5010452;28;19963;-83
2022/06/29 15:47:36;;;;;;;;;;;;;;;;;;5005664;28;19935;-83
2022/06/29 15:50:03;;;;;;;;;;;;;;;;;;5006026;28;20197;-82
2022/06/29 15:52:28;;;;;;;;;;;;;;;;;;5007224;28;19976;-83
2022/06/29 15:57:37;;;;;;;;;;;;;;;;;;5003267;28;20412;-83
2022/06/29 16:00:02;;;;;;;;;;;;;;;;;;5008716;28;19917;-82
2022/06/29 16:02:27;;;;;;;;;;;;;;;;;;5005947;28;19921;-83
2022/06/29 16:04:52;;;;;;;;;;;;;;;;;;5006343;28;20512;-83
2022/06/29 16:07:18;;;;;;;;;;;;;;;;;;5005710;28;19964;-84
2022/06/29 16:09:50;;;;;;;;;;;;;;;;;;5006210;28;19929;-84
2022/06/29 16:15:08;;;;;;;;;;;;;;;;;;5004699;28;19950;-83
2022/06/29 16:17:40;;;;;;;;;;;;;;;;;;5008457;28;20374;-84
2022/06/29 16:20:06;;;;;;;;;;;;;;;;;;5008363;28;20004;-84
2022/06/29 16:22:34;;;;;;;;;;;;;;;;;;5009989;28;19956;-83
2022/06/29 16:25:01;;;;;;;;;;;;;;;;;;5007754;28;19917;-83
2022/06/29 16:27:26;;;;;;;;;;;;;;;;;;5007134;28;19914;-83
2022/06/29 16:29:54;;;;;;;;;;;;;;;;;;5007989;28;20276;-83
2022/06/29 16:38:09;;;;;;;;;;;;;;;;;;5003496;28;19968;-84
2022/06/29 16:40:37;;;;;;;;;;;;;;;;;;5001553;28;19913;-84
2022/06/29 16:43:02;;;;;;;;;;;;;;;;;;5010328;28;19975;-84
2022/06/29 16:45:27;;;;;;;;;;;;;;;;;;5002760;28;21616;-84
2022/06/29 16:47:52;;;;;;;;;;;;;;;;;;5009294;28;19957;-83
2022/06/29 16:50:18;;;;;;;;;;;;;;;;;;5004983;28;19940;-84
2022/06/29 16:52:44;;;;;;;;;;;;;;;;;;5009323;28;19921;-83
2022/06/29 16:55:09;;;;;;;;;;;;;;;;;;5011651;28;19913;-83
2022/06/29 16:57:34;;;;;;;;;;;;;;;;;;5011138;28;19967;-83
2022/06/29 16:59:59;;;;;;;;;;;;;;;;;;5006886;28;20915;-83
2022/06/29 17:02:25;;;;;;;;;;;;;;;;;;5013077;28;19913;-84
2022/06/29 17:04:50;;;;;;;;;;;;;;;;;;5010684;28;19924;-83
2022/06/29 17:07:15;;;;;;;;;;;;;;;;;;5009203;28;19921;-83
2022/06/29 17:09:41;;;;;;;;;;;;;;;;;;5008444;28;21946;-83
2022/06/29 17:12:06;;;;;;;;;;;;;;;;;;5011947;28;19914;-83
2022/06/29 17:14:31;;;;;;;;;;;;;;;;;;5010544;28;20422;-83
2022/06/29 17:16:56;;;;;;;;;;;;;;;;;;5006360;28;19940;-82
2022/06/29 17:19:21;;;;;;;;;;;;;;;;;;5006273;28;20342;-82